sensor_id;sensor_type;location;lat;lon;timestamp;temperature;humidity
36444;DHT22;24692;45.642;13.806;2022-12-20T00:02:11;4.70;99.90
36444;DHT22;24692;45.642;13.806;2022-12-20T00:04:36;4.80;99.90
36444;DHT22;24692;45.642;13.806;2022-12-20T00:07:02;4.70;99.90
36444;DHT22;24692;45.642;13.806;2022-12-20T00:09:28;4.70;99.90
36444;DHT22;24692;45.642;13.806;2022-12-20T00:11:53;4.60;99.90
36444;DHT22;24692;45.642;13.806;2022-12-20T00:14:19;4.60;99.90
36444;DHT22;24692;45.642;13.806;2022-12-20T00:16:45;4.60;99.90
36444;DHT22;24692;45.642;13.806;2022-12-20T00:19:11;4.70;99.90
36444;DHT22;24692;45.642;13.806;2022-12-20T00:21:41;4.80;99.90
36444;DHT22;24692;45.642;13.806;2022-12-20T00:24:07;4.70;99.90
36444;DHT22;24692;45.642;13.806;2022-12-20T00:26:33;4.70;99.90
36444;DHT22;24692;45.642;13.806;2022-12-20T00:28:59;4.70;99.90
36444;DHT22;24692;45.642;13.806;2022-12-20T00:31:27;4.80;99.90
36444;DHT22;24692;45.642;13.806;2022-12-20T00:33:55;4.80;99.90
36444;DHT22;24692;45.642;13.806;2022-12-20T00:36:22;4.80;99.90
36444;DHT22;24692;45.642;13.806;2022-12-20T00:38:50;4.70;99.90
36444;DHT22;24692;45.642;13.806;2022-12-20T00:41:19;4.70;99.90
36444;DHT22;24692;45.642;13.806;2022-12-20T00:43:45;4.80;99.90
36444;DHT22;24692;45.642;13.806;2022-12-20T00:46:12;4.70;99.90
36444;DHT22;24692;45.642;13.806;2022-12-20T00:48:38;4.70;99.90
36444;DHT22;24692;45.642;13.806;2022-12-20T00:51:12;4.70;99.90
36444;DHT22;24692;45.642;13.806;2022-12-20T00:53:38;4.70;99.90
36444;DHT22;24692;45.642;13.806;2022-12-20T00:56:04;4.80;99.90
36444;DHT22;24692;45.642;13.806;2022-12-20T00:58:35;4.80;99.90
36444;DHT22;24692;45.642;13.806;2022-12-20T01:01:03;4.80;99.90
36444;DHT22;24692;45.642;13.806;2022-12-20T01:03:28;4.80;99.90
36444;DHT22;24692;45.642;13.806;2022-12-20T01:06:01;4.80;99.90
36444;DHT22;24692;45.642;13.806;2022-12-20T01:08:28;4.80;99.90
36444;DHT22;24692;45.642;13.806;2022-12-20T01:10:59;4.90;99.90
36444;DHT22;24692;45.642;13.806;2022-12-20T01:13:26;4.90;99.90
36444;DHT22;24692;45.642;13.806;2022-12-20T01:15:52;4.90;99.90
36444;DHT22;24692;45.642;13.806;2022-12-20T01:18:17;4.80;99.90
36444;DHT22;24692;45.642;13.806;2022-12-20T01:20:43;4.70;99.90
36444;DHT22;24692;45.642;13.806;2022-12-20T01:23:08;4.80;99.90
36444;DHT22;24692;45.642;13.806;2022-12-20T01:25:34;4.70;99.90
36444;DHT22;24692;45.642;13.806;2022-12-20T01:28:00;4.80;99.90
36444;DHT22;24692;45.642;13.806;2022-12-20T01:30:25;4.70;99.90
36444;DHT22;24692;45.642;13.806;2022-12-20T01:32:51;4.70;99.90
36444;DHT22;24692;45.642;13.806;2022-12-20T01:35:17;4.70;99.90
36444;DHT22;24692;45.642;13.806;2022-12-20T01:37:43;4.60;99.90
36444;DHT22;24692;45.642;13.806;2022-12-20T01:40:09;4.50;99.90
36444;DHT22;24692;45.642;13.806;2022-12-20T01:42:35;4.50;99.90
36444;DHT22;24692;45.642;13.806;2022-12-20T01:45:02;4.40;99.90
36444;DHT22;24692;45.642;13.806;2022-12-20T01:47:31;4.40;99.90
36444;DHT22;24692;45.642;13.806;2022-12-20T01:49:59;4.40;99.90
36444;DHT22;24692;45.642;13.806;2022-12-20T01:52:38;4.50;99.90
36444;DHT22;24692;45.642;13.806;2022-12-20T01:55:12;4.60;99.90
36444;DHT22;24692;45.642;13.806;2022-12-20T01:57:50;4.60;99.90
36444;DHT22;24692;45.642;13.806;2022-12-20T02:00:18;4.60;99.90
36444;DHT22;24692;45.642;13.806;2022-12-20T02:02:46;4.50;99.90
36444;DHT22;24692;45.642;13.806;2022-12-20T02:05:13;4.50;99.90
36444;DHT22;24692;45.642;13.806;2022-12-20T02:07:40;4.40;99.90
36444;DHT22;24692;45.642;13.806;2022-12-20T02:10:10;4.40;99.90
36444;DHT22;24692;45.642;13.806;2022-12-20T02:12:41;4.40;99.90
36444;DHT22;24692;45.642;13.806;2022-12-20T02:18:13;4.50;99.90
36444;DHT22;24692;45.642;13.806;2022-12-20T02:20:50;4.40;99.90
36444;DHT22;24692;45.642;13.806;2022-12-20T02:23:57;4.40;99.90
36444;DHT22;24692;45.642;13.806;2022-12-20T02:32:11;4.30;99.90
36444;DHT22;24692;45.642;13.806;2022-12-20T02:34:35;4.30;99.90
36444;DHT22;24692;45.642;13.806;2022-12-20T02:37:02;4.30;99.90
36444;DHT22;24692;45.642;13.806;2022-12-20T02:39:29;4.30;99.90
36444;DHT22;24692;45.642;13.806;2022-12-20T02:42:37;4.30;99.90
36444;DHT22;24692;45.642;13.806;2022-12-20T02:45:04;4.30;99.90
36444;DHT22;24692;45.642;13.806;2022-12-20T02:47:55;4.30;99.90
36444;DHT22;24692;45.642;13.806;2022-12-20T02:50:28;4.40;99.90
36444;DHT22;24692;45.642;13.806;2022-12-20T02:52:55;4.40;99.90
36444;DHT22;24692;45.642;13.806;2022-12-20T02:55:40;4.40;99.90
36444;DHT22;24692;45.642;13.806;2022-12-20T02:58:27;4.30;99.90
36444;DHT22;24692;45.642;13.806;2022-12-20T03:00:55;4.40;99.90
36444;DHT22;24692;45.642;13.806;2022-12-20T03:03:22;4.50;99.90
36444;DHT22;24692;45.642;13.806;2022-12-20T03:05:50;4.40;99.90
36444;DHT22;24692;45.642;13.806;2022-12-20T03:08:16;4.50;99.90
36444;DHT22;24692;45.642;13.806;2022-12-20T03:10:43;4.40;99.90
36444;DHT22;24692;45.642;13.806;2022-12-20T03:13:09;4.40;99.90
36444;DHT22;24692;45.642;13.806;2022-12-20T03:15:35;4.50;99.90
36444;DHT22;24692;45.642;13.806;2022-12-20T03:18:01;4.50;99.90
36444;DHT22;24692;45.642;13.806;2022-12-20T03:20:27;4.50;99.90
36444;DHT22;24692;45.642;13.806;2022-12-20T03:22:53;4.50;99.90
36444;DHT22;24692;45.642;13.806;2022-12-20T03:25:19;4.40;99.90
36444;DHT22;24692;45.642;13.806;2022-12-20T03:27:44;4.40;99.90
36444;DHT22;24692;45.642;13.806;2022-12-20T03:30:11;4.40;99.90
36444;DHT22;24692;45.642;13.806;2022-12-20T03:32:37;4.40;99.90
36444;DHT22;24692;45.642;13.806;2022-12-20T03:35:03;4.30;99.90
36444;DHT22;24692;45.642;13.806;2022-12-20T03:37:29;4.30;99.90
36444;DHT22;24692;45.642;13.806;2022-12-20T03:39:54;4.30;99.90
36444;DHT22;24692;45.642;13.806;2022-12-20T03:42:20;4.30;99.90
36444;DHT22;24692;45.642;13.806;2022-12-20T03:44:46;4.40;99.90
36444;DHT22;24692;45.642;13.806;2022-12-20T03:47:11;4.30;99.90
36444;DHT22;24692;45.642;13.806;2022-12-20T03:49:37;4.40;99.90
36444;DHT22;24692;45.642;13.806;2022-12-20T03:52:03;4.40;99.90
36444;DHT22;24692;45.642;13.806;2022-12-20T03:54:28;4.30;99.90
36444;DHT22;24692;45.642;13.806;2022-12-20T03:56:54;4.30;99.90
36444;DHT22;24692;45.642;13.806;2022-12-20T03:59:20;4.30;99.90
36444;DHT22;24692;45.642;13.806;2022-12-20T04:01:46;4.30;99.90
36444;DHT22;24692;45.642;13.806;2022-12-20T04:04:13;4.30;99.90
36444;DHT22;24692;45.642;13.806;2022-12-20T04:06:39;4.40;99.90
36444;DHT22;24692;45.642;13.806;2022-12-20T04:09:05;4.40;99.90
36444;DHT22;24692;45.642;13.806;2022-12-20T04:11:31;4.40;99.90
36444;DHT22;24692;45.642;13.806;2022-12-20T04:13:57;4.40;99.90
36444;DHT22;24692;45.642;13.806;2022-12-20T04:16:24;4.40;99.90
36444;DHT22;24692;45.642;13.806;2022-12-20T04:18:50;4.40;99.90
36444;DHT22;24692;45.642;13.806;2022-12-20T04:21:24;4.50;99.90
36444;DHT22;24692;45.642;13.806;2022-12-20T04:23:50;4.50;99.90
36444;DHT22;24692;45.642;13.806;2022-12-20T04:26:16;4.50;99.90
36444;DHT22;24692;45.642;13.806;2022-12-20T04:28:41;4.50;99.90
36444;DHT22;24692;45.642;13.806;2022-12-20T04:31:07;4.50;99.90
36444;DHT22;24692;45.642;13.806;2022-12-20T04:33:34;4.60;99.90
36444;DHT22;24692;45.642;13.806;2022-12-20T04:35:59;4.60;99.90
36444;DHT22;24692;45.642;13.806;2022-12-20T04:38:25;4.60;99.90
36444;DHT22;24692;45.642;13.806;2022-12-20T04:40:52;4.60;99.90
36444;DHT22;24692;45.642;13.806;2022-12-20T04:43:19;4.70;99.90
36444;DHT22;24692;45.642;13.806;2022-12-20T04:45:50;4.70;99.90
36444;DHT22;24692;45.642;13.806;2022-12-20T04:48:18;4.60;99.90
36444;DHT22;24692;45.642;13.806;2022-12-20T04:50:50;4.70;99.90
36444;DHT22;24692;45.642;13.806;2022-12-20T04:53:16;4.70;99.90
36444;DHT22;24692;45.642;13.806;2022-12-20T04:56:01;4.80;99.90
36444;DHT22;24692;45.642;13.806;2022-12-20T04:58:27;4.90;99.90
36444;DHT22;24692;45.642;13.806;2022-12-20T05:00:53;4.80;99.90
36444;DHT22;24692;45.642;13.806;2022-12-20T05:03:19;4.90;99.90
36444;DHT22;24692;45.642;13.806;2022-12-20T05:05:45;4.90;99.90
36444;DHT22;24692;45.642;13.806;2022-12-20T05:08:10;5.00;99.90
36444;DHT22;24692;45.642;13.806;2022-12-20T05:10:36;5.00;99.90
36444;DHT22;24692;45.642;13.806;2022-12-20T05:13:02;5.00;99.90
36444;DHT22;24692;45.642;13.806;2022-12-20T05:15:28;5.10;99.90
36444;DHT22;24692;45.642;13.806;2022-12-20T05:17:54;5.10;99.90
36444;DHT22;24692;45.642;13.806;2022-12-20T05:20:25;5.20;99.90
36444;DHT22;24692;45.642;13.806;2022-12-20T05:22:51;5.20;99.90
36444;DHT22;24692;45.642;13.806;2022-12-20T05:25:38;5.20;99.90
36444;DHT22;24692;45.642;13.806;2022-12-20T05:28:22;5.40;99.90
36444;DHT22;24692;45.642;13.806;2022-12-20T05:30:48;5.60;99.90
36444;DHT22;24692;45.642;13.806;2022-12-20T05:33:14;5.60;99.90
36444;DHT22;24692;45.642;13.806;2022-12-20T05:35:39;5.50;99.90
36444;DHT22;24692;45.642;13.806;2022-12-20T05:38:06;5.60;99.90
36444;DHT22;24692;45.642;13.806;2022-12-20T05:40:32;5.60;99.90
36444;DHT22;24692;45.642;13.806;2022-12-20T05:42:57;5.60;99.90
36444;DHT22;24692;45.642;13.806;2022-12-20T05:45:23;5.60;99.90
36444;DHT22;24692;45.642;13.806;2022-12-20T05:47:48;5.60;99.90
36444;DHT22;24692;45.642;13.806;2022-12-20T05:50:14;5.70;99.90
36444;DHT22;24692;45.642;13.806;2022-12-20T05:52:41;5.80;99.90
36444;DHT22;24692;45.642;13.806;2022-12-20T05:55:07;5.90;99.90
36444;DHT22;24692;45.642;13.806;2022-12-20T05:57:33;6.00;99.90
36444;DHT22;24692;45.642;13.806;2022-12-20T05:59:58;5.90;99.90
36444;DHT22;24692;45.642;13.806;2022-12-20T06:02:25;5.90;99.90
36444;DHT22;24692;45.642;13.806;2022-12-20T06:04:50;5.90;99.90
36444;DHT22;24692;45.642;13.806;2022-12-20T06:07:16;6.00;99.90
36444;DHT22;24692;45.642;13.806;2022-12-20T06:09:43;6.10;99.90
36444;DHT22;24692;45.642;13.806;2022-12-20T06:12:08;6.20;99.90
36444;DHT22;24692;45.642;13.806;2022-12-20T06:14:34;6.20;99.90
36444;DHT22;24692;45.642;13.806;2022-12-20T06:17:00;6.20;99.90
36444;DHT22;24692;45.642;13.806;2022-12-20T06:19:26;6.20;99.90
36444;DHT22;24692;45.642;13.806;2022-12-20T06:21:52;6.10;99.90
36444;DHT22;24692;45.642;13.806;2022-12-20T06:24:17;6.30;99.90
36444;DHT22;24692;45.642;13.806;2022-12-20T06:26:43;6.30;99.90
36444;DHT22;24692;45.642;13.806;2022-12-20T06:29:09;6.30;99.90
36444;DHT22;24692;45.642;13.806;2022-12-20T06:31:39;6.30;99.90
36444;DHT22;24692;45.642;13.806;2022-12-20T06:34:05;6.20;99.90
36444;DHT22;24692;45.642;13.806;2022-12-20T06:36:31;6.20;99.90
36444;DHT22;24692;45.642;13.806;2022-12-20T06:38:57;6.20;99.90
36444;DHT22;24692;45.642;13.806;2022-12-20T06:41:22;6.30;99.90
36444;DHT22;24692;45.642;13.806;2022-12-20T06:43:48;6.30;99.90
36444;DHT22;24692;45.642;13.806;2022-12-20T06:46:14;6.30;99.90
36444;DHT22;24692;45.642;13.806;2022-12-20T06:48:39;6.40;99.90
36444;DHT22;24692;45.642;13.806;2022-12-20T06:51:05;6.50;99.90
36444;DHT22;24692;45.642;13.806;2022-12-20T06:53:31;6.60;99.90
36444;DHT22;24692;45.642;13.806;2022-12-20T06:55:56;6.90;99.90
36444;DHT22;24692;45.642;13.806;2022-12-20T06:58:22;6.90;99.90
36444;DHT22;24692;45.642;13.806;2022-12-20T07:00:48;6.90;99.90
36444;DHT22;24692;45.642;13.806;2022-12-20T07:03:14;6.90;99.90
36444;DHT22;24692;45.642;13.806;2022-12-20T07:05:40;6.90;99.90
36444;DHT22;24692;45.642;13.806;2022-12-20T07:08:07;6.80;99.90
36444;DHT22;24692;45.642;13.806;2022-12-20T07:10:33;6.90;99.90
36444;DHT22;24692;45.642;13.806;2022-12-20T07:13:00;6.90;99.90
36444;DHT22;24692;45.642;13.806;2022-12-20T07:15:25;6.90;99.90
36444;DHT22;24692;45.642;13.806;2022-12-20T07:17:51;6.90;99.90
36444;DHT22;24692;45.642;13.806;2022-12-20T07:20:17;7.00;99.90
36444;DHT22;24692;45.642;13.806;2022-12-20T07:22:43;7.10;99.90
36444;DHT22;24692;45.642;13.806;2022-12-20T07:25:11;7.10;99.90
36444;DHT22;24692;45.642;13.806;2022-12-20T07:27:37;7.20;99.90
36444;DHT22;24692;45.642;13.806;2022-12-20T07:30:03;7.30;99.90
36444;DHT22;24692;45.642;13.806;2022-12-20T07:32:29;7.40;99.90
36444;DHT22;24692;45.642;13.806;2022-12-20T07:34:55;7.50;99.90
36444;DHT22;24692;45.642;13.806;2022-12-20T07:37:21;7.60;99.90
36444;DHT22;24692;45.642;13.806;2022-12-20T07:39:46;7.60;99.90
36444;DHT22;24692;45.642;13.806;2022-12-20T07:42:12;7.50;99.90
36444;DHT22;24692;45.642;13.806;2022-12-20T07:44:38;7.50;99.90
36444;DHT22;24692;45.642;13.806;2022-12-20T07:47:03;7.40;99.90
36444;DHT22;24692;45.642;13.806;2022-12-20T07:49:29;7.40;99.90
36444;DHT22;24692;45.642;13.806;2022-12-20T07:51:56;7.40;99.90
36444;DHT22;24692;45.642;13.806;2022-12-20T07:54:30;7.40;99.90
36444;DHT22;24692;45.642;13.806;2022-12-20T07:57:02;7.40;99.90
36444;DHT22;24692;45.642;13.806;2022-12-20T07:59:42;7.40;99.90
36444;DHT22;24692;45.642;13.806;2022-12-20T08:02:13;7.50;99.90
36444;DHT22;24692;45.642;13.806;2022-12-20T08:04:40;7.60;99.90
36444;DHT22;24692;45.642;13.806;2022-12-20T08:07:06;7.70;99.90
36444;DHT22;24692;45.642;13.806;2022-12-20T08:09:37;7.80;99.90
36444;DHT22;24692;45.642;13.806;2022-12-20T08:12:04;7.80;99.90
36444;DHT22;24692;45.642;13.806;2022-12-20T08:14:32;7.90;99.90
36444;DHT22;24692;45.642;13.806;2022-12-20T08:16:58;7.90;99.90
36444;DHT22;24692;45.642;13.806;2022-12-20T08:19:23;7.90;99.90
36444;DHT22;24692;45.642;13.806;2022-12-20T08:21:49;8.00;99.90
36444;DHT22;24692;45.642;13.806;2022-12-20T08:24:15;8.00;99.90
36444;DHT22;24692;45.642;13.806;2022-12-20T08:26:40;8.10;99.90
36444;DHT22;24692;45.642;13.806;2022-12-20T08:29:06;8.10;99.90
36444;DHT22;24692;45.642;13.806;2022-12-20T08:31:37;8.10;99.90
36444;DHT22;24692;45.642;13.806;2022-12-20T08:34:03;8.20;99.90
36444;DHT22;24692;45.642;13.806;2022-12-20T08:36:29;8.20;99.90
36444;DHT22;24692;45.642;13.806;2022-12-20T08:38:54;8.20;99.90
36444;DHT22;24692;45.642;13.806;2022-12-20T08:41:20;8.20;99.90
36444;DHT22;24692;45.642;13.806;2022-12-20T08:43:46;8.20;99.90
36444;DHT22;24692;45.642;13.806;2022-12-20T08:46:12;8.20;99.90
36444;DHT22;24692;45.642;13.806;2022-12-20T08:48:38;9.50;99.90
36444;DHT22;24692;45.642;13.806;2022-12-20T08:51:06;10.90;99.90
36444;DHT22;24692;45.642;13.806;2022-12-20T08:53:33;11.70;99.90
36444;DHT22;24692;45.642;13.806;2022-12-20T08:56:17;11.60;99.90
36444;DHT22;24692;45.642;13.806;2022-12-20T08:58:45;11.40;99.90
36444;DHT22;24692;45.642;13.806;2022-12-20T09:01:17;11.80;99.90
36444;DHT22;24692;45.642;13.806;2022-12-20T09:03:44;12.00;99.90
36444;DHT22;24692;45.642;13.806;2022-12-20T09:06:13;12.00;99.90
36444;DHT22;24692;45.642;13.806;2022-12-20T09:08:39;12.00;99.90
36444;DHT22;24692;45.642;13.806;2022-12-20T09:11:14;11.80;99.90
36444;DHT22;24692;45.642;13.806;2022-12-20T09:13:41;11.50;99.90
36444;DHT22;24692;45.642;13.806;2022-12-20T09:16:08;11.30;99.90
36444;DHT22;24692;45.642;13.806;2022-12-20T09:18:34;11.10;99.90
36444;DHT22;24692;45.642;13.806;2022-12-20T09:21:04;11.10;99.90
36444;DHT22;24692;45.642;13.806;2022-12-20T09:23:32;11.10;99.90
36444;DHT22;24692;45.642;13.806;2022-12-20T09:26:05;11.20;99.90
36444;DHT22;24692;45.642;13.806;2022-12-20T09:28:32;11.10;99.90
36444;DHT22;24692;45.642;13.806;2022-12-20T09:30:59;11.20;99.90
36444;DHT22;24692;45.642;13.806;2022-12-20T09:33:25;11.20;99.90
36444;DHT22;24692;45.642;13.806;2022-12-20T09:35:51;11.10;99.90
36444;DHT22;24692;45.642;13.806;2022-12-20T09:38:17;10.90;99.90
36444;DHT22;24692;45.642;13.806;2022-12-20T09:40:47;10.80;99.90
36444;DHT22;24692;45.642;13.806;2022-12-20T09:43:15;10.50;99.90
36444;DHT22;24692;45.642;13.806;2022-12-20T09:45:42;10.40;99.90
36444;DHT22;24692;45.642;13.806;2022-12-20T09:48:16;10.40;99.90
36444;DHT22;24692;45.642;13.806;2022-12-20T09:50:49;10.10;99.90
36444;DHT22;24692;45.642;13.806;2022-12-20T09:53:27;9.90;99.90
36444;DHT22;24692;45.642;13.806;2022-12-20T09:56:02;10.00;99.90
36444;DHT22;24692;45.642;13.806;2022-12-20T10:01:32;10.30;99.90
36444;DHT22;24692;45.642;13.806;2022-12-20T10:04:13;10.00;99.90
36444;DHT22;24692;45.642;13.806;2022-12-20T10:15:57;10.00;99.90
36444;DHT22;24692;45.642;13.806;2022-12-20T10:21:07;10.40;99.90
36444;DHT22;24692;45.642;13.806;2022-12-20T10:23:59;10.90;99.90
36444;DHT22;24692;45.642;13.806;2022-12-20T10:26:26;10.90;99.90
36444;DHT22;24692;45.642;13.806;2022-12-20T10:28:52;11.00;99.90
36444;DHT22;24692;45.642;13.806;2022-12-20T10:31:18;10.80;99.90
36444;DHT22;24692;45.642;13.806;2022-12-20T10:33:44;10.80;99.90
36444;DHT22;24692;45.642;13.806;2022-12-20T10:36:36;11.00;99.90
36444;DHT22;24692;45.642;13.806;2022-12-20T10:39:05;11.10;99.90
36444;DHT22;24692;45.642;13.806;2022-12-20T10:41:47;11.00;99.90
36444;DHT22;24692;45.642;13.806;2022-12-20T10:46:49;11.10;99.90
36444;DHT22;24692;45.642;13.806;2022-12-20T10:54:36;11.30;99.90
36444;DHT22;24692;45.642;13.806;2022-12-20T11:07:39;12.10;99.90
36444;DHT22;24692;45.642;13.806;2022-12-20T11:10:26;11.90;99.90
36444;DHT22;24692;45.642;13.806;2022-12-20T11:13:00;12.50;99.90
36444;DHT22;24692;45.642;13.806;2022-12-20T11:15:28;12.00;99.90
36444;DHT22;24692;45.642;13.806;2022-12-20T11:18:37;12.30;99.90
36444;DHT22;24692;45.642;13.806;2022-12-20T11:21:26;12.30;99.90
36444;DHT22;24692;45.642;13.806;2022-12-20T11:38:09;11.50;99.90
36444;DHT22;24692;45.642;13.806;2022-12-20T11:40:53;10.90;99.90
36444;DHT22;24692;45.642;13.806;2022-12-20T11:46:23;11.50;99.90
36444;DHT22;24692;45.642;13.806;2022-12-20T11:51:44;10.90;99.90
36444;DHT22;24692;45.642;13.806;2022-12-20T11:54:16;10.50;99.90
36444;DHT22;24692;45.642;13.806;2022-12-20T11:56:47;10.20;99.90
36444;DHT22;24692;45.642;13.806;2022-12-20T11:59:27;10.00;99.90
36444;DHT22;24692;45.642;13.806;2022-12-20T12:02:13;9.80;99.90
36444;DHT22;24692;45.642;13.806;2022-12-20T12:07:28;9.60;99.90
36444;DHT22;24692;45.642;13.806;2022-12-20T12:10:12;9.60;99.90
36444;DHT22;24692;45.642;13.806;2022-12-20T12:13:11;9.60;99.90
36444;DHT22;24692;45.642;13.806;2022-12-20T12:18:21;9.60;99.90
36444;DHT22;24692;45.642;13.806;2022-12-20T12:28:53;9.70;99.90
36444;DHT22;24692;45.642;13.806;2022-12-20T12:31:34;9.80;99.90
36444;DHT22;24692;45.642;13.806;2022-12-20T12:43:08;9.60;99.90
36444;DHT22;24692;45.642;13.806;2022-12-20T12:45:47;9.50;99.90
36444;DHT22;24692;45.642;13.806;2022-12-20T12:48:39;9.50;99.90
36444;DHT22;24692;45.642;13.806;2022-12-20T12:51:07;9.50;99.90
36444;DHT22;24692;45.642;13.806;2022-12-20T12:53:41;9.40;99.90
36444;DHT22;24692;45.642;13.806;2022-12-20T12:56:38;9.50;99.90
36444;DHT22;24692;45.642;13.806;2022-12-20T13:04:29;9.60;99.90
36444;DHT22;24692;45.642;13.806;2022-12-20T13:07:02;9.60;99.90
36444;DHT22;24692;45.642;13.806;2022-12-20T13:11:57;9.60;99.90
36444;DHT22;24692;45.642;13.806;2022-12-20T13:19:50;9.80;99.90
36444;DHT22;24692;45.642;13.806;2022-12-20T13:40:21;9.60;99.90
36444;DHT22;24692;45.642;13.806;2022-12-20T13:42:51;9.50;99.90
36444;DHT22;24692;45.642;13.806;2022-12-20T13:45:18;9.50;99.90
36444;DHT22;24692;45.642;13.806;2022-12-20T13:47:47;9.40;99.90
36444;DHT22;24692;45.642;13.806;2022-12-20T13:50:32;9.40;99.90
36444;DHT22;24692;45.642;13.806;2022-12-20T13:53:02;9.40;99.90
36444;DHT22;24692;45.642;13.806;2022-12-20T13:55:38;9.40;99.90
36444;DHT22;24692;45.642;13.806;2022-12-20T13:58:13;9.40;99.90
36444;DHT22;24692;45.642;13.806;2022-12-20T14:00:40;9.30;99.90
36444;DHT22;24692;45.642;13.806;2022-12-20T14:03:16;9.20;99.90
36444;DHT22;24692;45.642;13.806;2022-12-20T14:05:43;9.10;99.90
36444;DHT22;24692;45.642;13.806;2022-12-20T14:08:15;9.10;99.90
36444;DHT22;24692;45.642;13.806;2022-12-20T14:10:41;9.20;99.90
36444;DHT22;24692;45.642;13.806;2022-12-20T14:13:25;9.10;99.90
36444;DHT22;24692;45.642;13.806;2022-12-20T14:15:52;9.20;99.90
36444;DHT22;24692;45.642;13.806;2022-12-20T14:18:23;9.20;99.90
36444;DHT22;24692;45.642;13.806;2022-12-20T14:20:53;9.30;99.90
36444;DHT22;24692;45.642;13.806;2022-12-20T14:23:22;9.30;99.90
36444;DHT22;24692;45.642;13.806;2022-12-20T14:28:19;9.20;99.90
36444;DHT22;24692;45.642;13.806;2022-12-20T14:30:46;9.30;99.90
36444;DHT22;24692;45.642;13.806;2022-12-20T14:33:24;9.30;99.90
36444;DHT22;24692;45.642;13.806;2022-12-20T14:35:52;9.30;99.90
36444;DHT22;24692;45.642;13.806;2022-12-20T14:38:29;9.30;99.90
36444;DHT22;24692;45.642;13.806;2022-12-20T14:40:56;9.40;99.90
36444;DHT22;24692;45.642;13.806;2022-12-20T14:43:42;9.40;99.90
36444;DHT22;24692;45.642;13.806;2022-12-20T14:46:18;9.20;99.90
36444;DHT22;24692;45.642;13.806;2022-12-20T14:48:45;9.10;99.90
36444;DHT22;24692;45.642;13.806;2022-12-20T14:51:13;9.00;99.90
36444;DHT22;24692;45.642;13.806;2022-12-20T14:53:44;9.00;99.90
36444;DHT22;24692;45.642;13.806;2022-12-20T14:56:17;9.00;99.90
36444;DHT22;24692;45.642;13.806;2022-12-20T14:58:44;8.90;99.90
36444;DHT22;24692;45.642;13.806;2022-12-20T15:01:19;8.80;99.90
36444;DHT22;24692;45.642;13.806;2022-12-20T15:03:53;8.90;99.90
36444;DHT22;24692;45.642;13.806;2022-12-20T15:08:57;9.10;99.90
36444;DHT22;24692;45.642;13.806;2022-12-20T15:11:23;9.00;99.90
36444;DHT22;24692;45.642;13.806;2022-12-20T15:13:52;9.00;99.90
36444;DHT22;24692;45.642;13.806;2022-12-20T15:16:26;9.10;99.90
36444;DHT22;24692;45.642;13.806;2022-12-20T15:18:58;9.10;99.90
36444;DHT22;24692;45.642;13.806;2022-12-20T15:21:41;9.00;99.90
36444;DHT22;24692;45.642;13.806;2022-12-20T15:24:15;9.00;99.90
36444;DHT22;24692;45.642;13.806;2022-12-20T15:26:43;9.00;99.90
36444;DHT22;24692;45.642;13.806;2022-12-20T15:29:26;9.00;99.90
36444;DHT22;24692;45.642;13.806;2022-12-20T15:32:02;9.10;99.90
36444;DHT22;24692;45.642;13.806;2022-12-20T15:34:31;8.90;99.90
36444;DHT22;24692;45.642;13.806;2022-12-20T15:36:57;8.80;99.90
36444;DHT22;24692;45.642;13.806;2022-12-20T15:39:25;8.70;99.90
36444;DHT22;24692;45.642;13.806;2022-12-20T15:41:51;8.70;99.90
36444;DHT22;24692;45.642;13.806;2022-12-20T15:44:21;8.80;99.90
36444;DHT22;24692;45.642;13.806;2022-12-20T15:46:48;8.80;99.90
36444;DHT22;24692;45.642;13.806;2022-12-20T15:49:21;8.80;99.90
36444;DHT22;24692;45.642;13.806;2022-12-20T15:51:49;8.60;99.90
36444;DHT22;24692;45.642;13.806;2022-12-20T15:54:27;8.60;99.90
36444;DHT22;24692;45.642;13.806;2022-12-20T15:56:57;8.60;99.90
36444;DHT22;24692;45.642;13.806;2022-12-20T15:59:23;8.60;99.90
36444;DHT22;24692;45.642;13.806;2022-12-20T16:01:49;8.60;99.90
36444;DHT22;24692;45.642;13.806;2022-12-20T16:04:17;8.60;99.90
36444;DHT22;24692;45.642;13.806;2022-12-20T16:06:44;8.60;99.90
36444;DHT22;24692;45.642;13.806;2022-12-20T16:09:11;8.80;99.90
36444;DHT22;24692;45.642;13.806;2022-12-20T16:11:37;8.80;99.90
36444;DHT22;24692;45.642;13.806;2022-12-20T16:14:03;8.90;99.90
36444;DHT22;24692;45.642;13.806;2022-12-20T16:16:34;8.80;99.90
36444;DHT22;24692;45.642;13.806;2022-12-20T16:19:01;8.70;99.90
36444;DHT22;24692;45.642;13.806;2022-12-20T16:21:40;8.50;99.90
36444;DHT22;24692;45.642;13.806;2022-12-20T16:24:11;8.60;99.90
36444;DHT22;24692;45.642;13.806;2022-12-20T16:26:37;8.70;99.90
36444;DHT22;24692;45.642;13.806;2022-12-20T16:29:02;8.90;99.90
36444;DHT22;24692;45.642;13.806;2022-12-20T16:31:31;9.10;99.90
36444;DHT22;24692;45.642;13.806;2022-12-20T16:33:58;9.10;99.90
36444;DHT22;24692;45.642;13.806;2022-12-20T16:36:24;9.10;99.90
36444;DHT22;24692;45.642;13.806;2022-12-20T16:38:51;9.10;99.90
36444;DHT22;24692;45.642;13.806;2022-12-20T16:41:22;9.10;99.90
36444;DHT22;24692;45.642;13.806;2022-12-20T16:43:49;9.20;99.90
36444;DHT22;24692;45.642;13.806;2022-12-20T16:46:17;9.20;99.90
36444;DHT22;24692;45.642;13.806;2022-12-20T16:48:43;9.10;99.90
36444;DHT22;24692;45.642;13.806;2022-12-20T16:51:42;8.90;99.90
36444;DHT22;24692;45.642;13.806;2022-12-20T16:56:39;8.90;99.90
36444;DHT22;24692;45.642;13.806;2022-12-20T16:59:05;9.00;99.90
36444;DHT22;24692;45.642;13.806;2022-12-20T17:01:33;9.00;99.90
36444;DHT22;24692;45.642;13.806;2022-12-20T17:04:00;9.10;99.90
36444;DHT22;24692;45.642;13.806;2022-12-20T17:06:27;9.10;99.90
36444;DHT22;24692;45.642;13.806;2022-12-20T17:08:52;9.10;99.90
36444;DHT22;24692;45.642;13.806;2022-12-20T17:11:23;9.10;99.90
36444;DHT22;24692;45.642;13.806;2022-12-20T17:13:51;9.10;99.90
36444;DHT22;24692;45.642;13.806;2022-12-20T17:16:17;9.10;99.90
36444;DHT22;24692;45.642;13.806;2022-12-20T17:18:45;9.30;99.90
36444;DHT22;24692;45.642;13.806;2022-12-20T17:21:28;9.40;99.90
36444;DHT22;24692;45.642;13.806;2022-12-20T17:23:58;9.40;99.90
36444;DHT22;24692;45.642;13.806;2022-12-20T17:26:26;9.30;99.90
36444;DHT22;24692;45.642;13.806;2022-12-20T17:28:54;9.30;99.90
36444;DHT22;24692;45.642;13.806;2022-12-20T17:31:26;9.30;99.90
36444;DHT22;24692;45.642;13.806;2022-12-20T17:33:52;9.20;99.90
36444;DHT22;24692;45.642;13.806;2022-12-20T17:36:18;9.10;99.90
36444;DHT22;24692;45.642;13.806;2022-12-20T17:38:44;9.10;99.90
36444;DHT22;24692;45.642;13.806;2022-12-20T17:43:45;9.10;99.90
36444;DHT22;24692;45.642;13.806;2022-12-20T17:46:10;9.10;99.90
36444;DHT22;24692;45.642;13.806;2022-12-20T17:48:38;9.00;99.90
36444;DHT22;24692;45.642;13.806;2022-12-20T17:53:49;9.00;99.90